Time;durP1;ratioP1;P1;durP2;ratioP2;P2;SDS_P1;SDS_P2;PMS_P1;PMS_P2;Temp;Humidity;BMP_temperature;BMP_pressure;BME280_temperature;BME280_humidity;BME280_pressure;Samples;Min_cycle;Max_cycle;Signal;HPM_P1;HPM_P2
2022/07/05 00:00:59;;;;;;;3.90;2.00;;;;;;;16.68;61.16;102009.66;5053410;28;20112;-78
2022/07/05 00:03:28;;;;;;;3.88;1.77;;;;;;;16.63;61.26;102001.84;5052576;28;20497;-78
2022/07/05 00:05:57;;;;;;;4.35;2.20;;;;;;;16.58;61.08;102002.00;5053278;28;20068;-77
2022/07/05 00:08:25;;;;;;;5.03;2.20;;;;;;;16.53;60.92;102001.31;5053693;28;20061;-78
2022/07/05 00:10:52;;;;;;;3.47;2.22;;;;;;;16.50;61.13;101995.22;5051405;28;20091;-78
2022/07/05 00:13:19;;;;;;;3.10;1.88;;;;;;;16.43;61.30;101995.44;5032884;28;20074;-77
2022/07/05 00:15:46;;;;;;;4.38;2.28;;;;;;;16.39;62.14;101999.16;5053011;28;20050;-80
2022/07/05 00:18:14;;;;;;;4.55;2.28;;;;;;;16.30;61.80;101997.69;5052162;28;20117;-80
2022/07/05 00:20:41;;;;;;;5.05;2.50;;;;;;;16.23;61.95;102001.50;5051341;28;20069;-79
2022/07/05 00:23:08;;;;;;;5.28;2.20;;;;;;;16.14;61.98;101996.50;5053596;28;20520;-80
2022/07/05 00:25:35;;;;;;;3.30;2.70;;;;;;;16.04;62.70;101998.59;5052663;28;20516;-80
2022/07/05 00:28:03;;;;;;;3.75;2.60;;;;;;;15.93;62.85;101995.44;5052512;28;20037;-79
2022/07/05 00:30:30;;;;;;;5.03;2.00;;;;;;;15.83;63.64;101998.41;5052257;28;20065;-79
2022/07/05 00:32:58;;;;;;;4.82;2.38;;;;;;;15.74;64.21;101993.41;5049863;28;20157;-79
2022/07/05 00:35:25;;;;;;;4.95;2.22;;;;;;;15.66;64.16;101998.09;5052140;28;20115;-81
2022/07/05 00:37:52;;;;;;;4.60;2.22;;;;;;;15.58;64.31;101993.03;5053568;28;20532;-79
2022/07/05 00:40:21;;;;;;;3.35;2.08;;;;;;;15.50;64.83;101998.63;5051222;28;20096;-77
2022/07/05 00:42:48;;;;;;;3.10;2.15;;;;;;;15.40;65.10;101997.19;5049381;28;20045;-77
2022/07/05 00:45:15;;;;;;;5.50;2.50;;;;;;;15.33;65.25;102001.81;5053457;28;20045;-77
2022/07/05 00:47:44;;;;;;;3.10;2.25;;;;;;;15.24;65.27;101995.91;5049804;28;20069;-76
2022/07/05 00:50:12;;;;;;;3.88;2.42;;;;;;;15.14;65.38;101995.34;5051871;28;20052;-76
2022/07/05 00:52:39;;;;;;;4.05;2.35;;;;;;;15.05;65.77;101988.53;5046838;28;20045;-78
2022/07/05 00:55:07;;;;;;;3.33;2.35;;;;;;;14.96;65.82;101988.81;5051036;28;20519;-75
2022/07/05 00:57:34;;;;;;;3.90;2.20;;;;;;;14.88;66.49;101987.28;5051927;28;20076;-76
2022/07/05 01:00:04;;;;;;;4.28;2.53;;;;;;;14.80;66.91;102005.22;5049512;28;20417;-76
2022/07/05 01:02:31;;;;;;;4.43;2.38;;;;;;;14.71;67.07;101995.72;5051507;28;20577;-75
2022/07/05 01:05:00;;;;;;;3.20;2.42;;;;;;;14.65;66.86;101993.19;5052522;28;20046;-76
2022/07/05 01:07:28;;;;;;;3.92;2.13;;;;;;;14.57;67.18;101992.56;5052257;28;20773;-78
2022/07/05 01:09:56;;;;;;;4.90;2.65;;;;;;;14.51;67.68;101995.41;5049880;28;20147;-78
2022/07/05 01:12:23;;;;;;;4.43;2.58;;;;;;;14.47;67.88;101994.63;5051715;28;20493;-76
2022/07/05 01:14:51;;;;;;;3.83;2.38;;;;;;;14.45;68.47;101993.78;5050542;28;20041;-75
2022/07/05 01:17:18;;;;;;;4.35;2.72;;;;;;;14.40;68.28;101996.56;5051332;28;20152;-75
2022/07/05 01:19:45;;;;;;;6.43;2.80;;;;;;;14.37;68.23;102003.75;5049781;28;20041;-75
2022/07/05 01:22:18;;;;;;;4.50;2.58;;;;;;;14.33;68.22;102002.09;5051183;28;20119;-75
2022/07/05 01:24:49;;;;;;;4.22;2.92;;;;;;;14.28;68.34;102003.09;5051701;28;20053;-75
2022/07/05 01:27:18;;;;;;;3.30;2.45;;;;;;;14.22;68.97;102008.56;5052786;28;20044;-75
2022/07/05 01:29:46;;;;;;;2.95;2.53;;;;;;;14.18;69.25;102006.91;5053097;28;20497;-76
2022/07/05 01:32:13;;;;;;;7.13;2.88;;;;;;;14.14;70.00;101999.94;5051686;28;20513;-74
2022/07/05 01:34:42;;;;;;;5.00;2.80;;;;;;;14.10;70.18;102001.81;5048018;28;20033;-76
2022/07/05 01:37:11;;;;;;;4.75;2.75;;;;;;;14.09;70.24;102005.38;5049810;28;20041;-77
2022/07/05 01:39:38;;;;;;;3.85;2.78;;;;;;;14.07;69.93;102001.88;5052707;28;20100;-78
2022/07/05 01:42:06;;;;;;;3.95;3.03;;;;;;;14.03;69.73;102002.00;5051539;28;20081;-78
2022/07/05 01:44:34;;;;;;;4.78;2.95;;;;;;;14.01;70.26;102007.34;5065007;28;20046;-78
2022/07/05 01:47:06;;;;;;;8.07;2.92;;;;;;;13.95;70.38;102004.84;5050053;28;20064;-78
2022/07/05 01:49:41;;;;;;;5.07;3.33;;;;;;;13.92;70.32;102008.44;5049854;28;20037;-77
2022/07/05 01:52:11;;;;;;;;;;;;;;;13.89;70.86;102005.88;5051420;28;20053;-78
2022/07/05 01:54:41;;;;;;;5.40;3.20;;;;;;;13.84;70.82;102009.59;5049857;28;19929;-78
2022/07/05 01:57:09;;;;;;;5.88;3.50;;;;;;;13.80;70.74;102008.75;5049421;28;20574;-75
2022/07/05 01:59:41;;;;;;;5.88;3.20;;;;;;;13.74;71.09;102003.63;5050630;28;20064;-76
2022/07/05 02:02:08;;;;;;;4.97;3.85;;;;;;;13.69;71.04;102001.09;5050845;28;20329;-76
2022/07/05 02:04:37;;;;;;;4.50;3.30;;;;;;;13.63;71.71;102006.56;5051301;28;20045;-77
2022/07/05 02:07:09;;;;;;;6.85;3.92;;;;;;;13.58;72.08;102005.78;5049088;28;20117;-77
2022/07/05 02:09:38;;;;;;;4.95;3.53;;;;;;;13.55;72.01;102005.84;5047643;28;20045;-77
2022/07/05 02:12:06;;;;;;;4.75;4.10;;;;;;;13.49;72.14;102004.22;5047544;28;20530;-77
2022/07/05 02:14:33;;;;;;;5.10;3.55;;;;;;;13.46;72.40;101993.72;5049754;28;20091;-77
2022/07/05 02:17:04;;;;;;;6.03;3.65;;;;;;;13.42;72.28;102005.28;5040239;28;20048;-75
2022/07/05 02:19:37;;;;;;;6.22;3.80;;;;;;;13.36;72.07;101996.56;5049594;28;20038;-77
2022/07/05 02:22:07;;;;;;;5.28;3.55;;;;;;;13.31;72.36;101997.56;5033134;28;20136;-76
2022/07/05 02:24:36;;;;;;;5.45;4.05;;;;;;;13.27;72.33;101995.88;5047958;28;20045;-77
2022/07/05 02:27:19;;;;;;;4.35;3.95;;;;;;;13.23;72.20;102002.19;5050441;28;20049;-77
2022/07/05 02:29:47;;;;;;;5.00;4.13;;;;;;;13.16;72.42;101997.00;5050732;28;20049;-78
2022/07/05 02:32:17;;;;;;;5.43;4.35;;;;;;;13.13;72.77;101990.91;5046705;28;20516;-78
2022/07/05 02:34:44;;;;;;;7.07;3.53;;;;;;;13.11;72.79;101990.06;5053526;28;20041;-78
2022/07/05 02:37:14;;;;;;;6.35;3.17;;;;;;;13.08;72.78;101990.13;5051642;28;20478;-78
2022/07/05 02:39:41;;;;;;;4.20;3.40;;;;;;;13.06;72.81;101998.13;5049899;28;20041;-78
2022/07/05 02:42:09;;;;;;;5.60;3.38;;;;;;;13.02;72.81;102002.59;5049216;28;20091;-79
2022/07/05 02:44:37;;;;;;;4.13;3.45;;;;;;;13.01;73.18;102006.16;5051180;28;20567;-78
2022/07/05 02:47:04;;;;;;;4.72;3.33;;;;;;;13.00;73.27;102011.50;5051527;28;20501;-79
2022/07/05 02:49:33;;;;;;;6.07;3.58;;;;;;;13.00;73.76;102007.06;5049897;28;20120;-78
2022/07/05 02:52:03;;;;;;;5.50;3.50;;;;;;;12.99;73.80;102005.31;5047557;28;20571;-78
2022/07/05 02:54:30;;;;;;;5.97;3.53;;;;;;;12.97;73.77;102004.47;5039203;28;20052;-77
2022/07/05 02:56:57;;;;;;;5.38;3.90;;;;;;;12.95;73.88;102014.25;5049310;28;20041;-77
2022/07/05 02:59:26;;;;;;;4.18;3.63;;;;;;;12.93;74.04;102017.81;5054004;28;20120;-77
2022/07/05 03:01:54;;;;;;;6.00;4.20;;;;;;;12.89;74.34;102012.59;5048044;28;20042;-78
2022/07/05 03:04:21;;;;;;;5.07;4.28;;;;;;;12.87;74.21;102021.47;5049355;28;20113;-76
2022/07/05 03:06:53;;;;;;;6.25;4.30;;;;;;;12.82;74.49;102018.91;5049014;28;20057;-78
2022/07/05 03:09:25;;;;;;;7.07;4.10;;;;;;;12.78;74.91;102022.53;5050035;28;20046;-78
2022/07/05 03:11:54;;;;;;;5.18;4.00;;;;;;;12.77;74.76;102023.44;5045226;28;20132;-78
2022/07/05 03:14:21;;;;;;;4.47;3.97;;;;;;;12.75;74.79;102022.59;5068833;28;20040;-78
2022/07/05 03:16:50;;;;;;;4.63;3.88;;;;;;;12.74;74.65;102012.91;5054318;28;20065;-78
2022/07/05 03:19:19;;;;;;;4.55;3.80;;;;;;;12.72;74.36;102014.69;5054003;28;20061;-78
2022/07/05 03:21:47;;;;;;;5.60;3.97;;;;;;;12.71;74.24;102018.28;5053465;28;20041;-78
2022/07/05 03:24:14;;;;;;;5.85;4.80;;;;;;;12.71;74.74;102023.56;5053632;28;20099;-78
2022/07/05 03:26:41;;;;;;;8.02;4.70;;;;;;;12.69;75.00;102018.28;5053971;28;20042;-77
2022/07/05 03:29:09;;;;;;;5.57;4.47;;;;;;;12.68;74.90;102019.19;5051688;28;20045;-77
2022/07/05 03:31:38;;;;;;;6.10;4.85;;;;;;;12.70;75.06;102025.34;5024524;28;20042;-77
2022/07/05 03:34:07;;;;;;;5.53;4.63;;;;;;;12.72;75.19;102035.88;5057250;28;20046;-77
2022/07/05 03:36:34;;;;;;;12.95;5.63;;;;;;;12.75;75.03;102030.53;5038581;28;20135;-76
2022/07/05 03:39:05;;;;;;;7.78;5.30;;;;;;;12.78;75.00;102017.25;5052455;28;20099;-77
2022/07/05 03:41:34;;;;;;;7.15;5.07;;;;;;;12.81;75.08;102019.84;5046987;28;20046;-76
2022/07/05 03:44:03;;;;;;;8.25;4.85;;;;;;;12.82;74.69;102028.63;5052141;28;20049;-76
2022/07/05 03:46:32;;;;;;;5.47;4.28;;;;;;;12.88;75.06;102031.13;5052899;28;20575;-76
2022/07/05 03:49:00;;;;;;;5.00;4.30;;;;;;;13.03;75.30;102024.63;5051972;28;20121;-77
2022/07/05 03:51:27;;;;;;;7.53;4.70;;;;;;;13.08;74.75;102025.44;5044531;28;20045;-77
2022/07/05 03:53:56;;;;;;;7.47;4.82;;;;;;;13.19;74.44;102019.88;5051680;28;20113;-77
2022/07/05 03:56:24;;;;;;;7.80;4.78;;;;;;;13.21;74.97;102031.31;5050196;28;20052;-78
2022/07/05 03:58:55;;;;;;;5.88;4.57;;;;;;;13.29;74.59;102029.34;5049797;28;20052;-78
2022/07/05 04:01:22;;;;;;;7.63;4.80;;;;;;;13.49;74.74;102042.19;5053900;28;20543;-77
2022/07/05 04:03:51;;;;;;;6.45;5.25;;;;;;;13.72;75.02;102042.53;5050693;28;20045;-77
2022/07/05 04:06:19;;;;;;;7.28;4.93;;;;;;;13.79;75.46;102050.31;5048069;28;20535;-78
2022/07/05 04:08:47;;;;;;;7.38;4.97;;;;;;;13.81;75.28;102045.84;5046866;28;20053;-76
2022/07/05 04:11:15;;;;;;;6.93;5.10;;;;;;;13.82;75.69;102050.25;5045772;28;20103;-77
2022/07/05 04:13:46;;;;;;;5.93;4.63;;;;;;;13.88;75.39;102059.81;5051914;28;20064;-76
2022/07/05 04:16:13;;;;;;;9.10;5.70;;;;;;;13.95;75.67;102050.81;5044138;28;20049;-77
2022/07/05 04:18:40;;;;;;;18.83;10.10;;;;;;;14.04;75.53;102056.78;5045374;28;20048;-76
2022/07/05 04:21:09;;;;;;;14.13;9.27;;;;;;;14.12;75.58;102058.31;5051298;28;20316;-76
2022/07/05 04:23:36;;;;;;;22.42;10.40;;;;;;;14.21;75.70;102061.66;5048631;28;20060;-75
2022/07/05 04:26:07;;;;;;;19.25;9.80;;;;;;;14.29;75.42;102059.66;5051215;28;20037;-74
2022/07/05 04:28:37;;;;;;;22.95;10.65;;;;;;;14.32;75.11;102059.59;5052112;28;20041;-75
2022/07/05 04:31:08;;;;;;;17.90;10.57;;;;;;;14.38;74.75;102064.72;5051614;28;20037;-75
2022/07/05 04:33:40;;;;;;;14.07;10.32;;;;;;;14.42;74.60;102060.19;5042441;28;20045;-75
2022/07/05 04:36:08;;;;;;;15.75;10.27;;;;;;;14.49;74.52;102056.47;5047898;28;20050;-78
2022/07/05 04:38:36;;;;;;;21.65;10.77;;;;;;;14.59;74.35;102057.97;5042049;28;20048;-78
2022/07/05 04:41:04;;;;;;;13.05;11.45;;;;;;;14.66;74.18;102044.50;5047687;28;20052;-76
2022/07/05 04:43:34;;;;;;;18.10;10.38;;;;;;;14.77;74.04;102054.84;5048004;28;20850;-81
2022/07/05 04:46:05;;;;;;;14.02;10.52;;;;;;;14.85;73.83;102067.00;5050585;28;20072;-75
2022/07/05 04:48:32;;;;;;;13.32;10.68;;;;;;;14.94;73.81;102059.66;5051248;28;20041;-78
2022/07/05 04:51:00;;;;;;;18.73;10.73;;;;;;;14.97;73.65;102063.09;5047757;28;20069;-78
2022/07/05 04:53:30;;;;;;;22.40;11.23;;;;;;;15.01;73.40;102056.78;5051335;28;20488;-78
2022/07/05 04:55:57;;;;;;;19.42;12.30;;;;;;;15.08;73.32;102060.16;5049490;28;20084;-76
2022/07/05 04:58:24;;;;;;;14.15;11.40;;;;;;;15.20;73.35;102056.25;5051038;28;20069;-76
2022/07/05 05:00:51;;;;;;;18.95;12.43;;;;;;;15.27;73.05;102056.94;5052859;28;20041;-76
2022/07/05 05:03:20;;;;;;;17.20;12.40;;;;;;;15.34;73.01;102055.81;5050049;28;20119;-77
2022/07/05 05:05:48;;;;;;;14.88;11.18;;;;;;;15.42;72.81;102056.44;5052300;28;20048;-76
2022/07/05 05:08:15;;;;;;;15.35;12.80;;;;;;;15.45;72.77;102053.69;5051046;28;20115;-77
2022/07/05 05:10:42;;;;;;;17.80;13.38;;;;;;;15.50;72.42;102057.09;5051970;28;20087;-76
2022/07/05 05:13:09;;;;;;;18.92;12.68;;;;;;;15.57;72.22;102055.06;5047123;28;20042;-77
2022/07/05 05:15:36;;;;;;;31.30;14.25;;;;;;;15.75;71.70;102056.28;5051041;28;20037;-76
2022/07/05 05:18:05;;;;;;;18.02;13.55;;;;;;;15.85;71.47;102059.56;5049702;28;20044;-76
2022/07/05 05:20:33;;;;;;;17.05;13.65;;;;;;;15.94;71.26;102061.00;5038019;28;20610;-77
2022/07/05 05:23:09;;;;;;;16.23;12.82;;;;;;;15.99;70.50;102067.91;5042007;28;20050;-76
2022/07/05 05:25:36;;;;;;;25.58;14.27;;;;;;;16.10;69.91;102074.66;5039518;28;20052;-76
2022/07/05 05:28:04;;;;;;;22.08;14.25;;;;;;;16.18;69.79;102069.94;5046138;28;20088;-77
2022/07/05 05:30:31;;;;;;;28.17;14.65;;;;;;;16.33;69.22;102071.19;5050896;28;20064;-76
2022/07/05 05:32:58;;;;;;;19.98;14.30;;;;;;;16.45;69.08;102070.78;5039999;28;20129;-76
2022/07/05 05:35:27;;;;;;;26.90;14.50;;;;;;;16.55;68.41;102066.00;5036278;28;20046;-75
2022/07/05 05:37:55;;;;;;;19.73;15.30;;;;;;;16.67;68.36;102066.50;5042229;28;20038;-76
2022/07/05 05:40:26;;;;;;;18.58;13.10;;;;;;;16.80;68.21;102067.75;5041065;28;20049;-76
2022/07/05 05:42:55;;;;;;;22.30;13.98;;;;;;;17.18;67.30;102080.59;5033870;28;20077;-76
2022/07/05 05:45:24;;;;;;;15.32;12.77;;;;;;;17.73;65.99;102071.34;5045403;28;20045;-76
2022/07/05 05:47:55;;;;;;;21.40;14.07;;;;;;;17.79;65.48;102071.97;5042891;28;20069;-76
2022/07/05 05:50:29;;;;;;;26.83;15.13;;;;;;;17.99;65.08;102072.97;5039613;28;20034;-77
2022/07/05 05:52:57;;;;;;;27.67;15.18;;;;;;;17.91;65.41;102072.34;5038586;28;20045;-76
2022/07/05 05:55:27;;;;;;;21.30;12.80;;;;;;;17.85;65.22;102069.03;5048816;28;20394;-76
2022/07/05 05:57:54;;;;;;;32.13;13.27;;;;;;;17.82;65.60;102076.28;5047580;28;20049;-77
2022/07/05 06:00:22;;;;;;;34.78;14.10;;;;;;;17.81;65.64;102078.06;5042851;28;20088;-76
2022/07/05 06:02:51;;;;;;;24.23;12.52;;;;;;;17.79;65.65;102079.06;5045673;28;20075;-77
2022/07/05 06:05:18;;;;;;;17.48;12.15;;;;;;;17.85;65.67;102086.84;5038494;28;20050;-77
2022/07/05 06:07:55;;;;;;;20.98;12.05;;;;;;;17.91;65.36;102088.34;5043340;28;20045;-77
2022/07/05 06:10:30;;;;;;;20.38;11.82;;;;;;;17.94;65.80;102075.78;5049720;28;20050;-76
2022/07/05 06:13:04;;;;;;;18.92;10.32;;;;;;;18.98;63.39;102090.00;5052169;28;20033;-78
2022/07/05 06:15:31;;;;;;;17.73;10.82;;;;;;;18.94;63.41;102088.41;5051074;28;20197;-76
2022/07/05 06:17:58;;;;;;;34.90;11.60;;;;;;;19.09;62.03;102097.50;5051946;28;20038;-77
2022/07/05 06:20:32;;;;;;;27.55;10.77;;;;;;;19.28;61.29;102094.84;5052888;28;20084;-76
2022/07/05 06:23:01;;;;;;;21.00;9.82;;;;;;;19.49;60.97;102092.94;5051954;28;20041;-77
2022/07/05 06:25:30;;;;;;;25.52;11.32;;;;;;;19.32;61.34;102095.56;5048549;28;20103;-77
2022/07/05 06:28:01;;;;;;;23.67;9.25;;;;;;;19.23;61.55;102097.75;5051549;28;20038;-81
2022/07/05 06:30:31;;;;;;;20.65;7.45;;;;;;;19.19;60.11;102106.84;5048590;28;20042;-80
2022/07/05 06:32:58;;;;;;;13.27;7.20;;;;;;;19.11;59.30;102106.34;5054579;28;20634;-79
2022/07/05 06:35:31;;;;;;;13.82;9.52;;;;;;;19.07;60.06;102100.28;5051078;28;20046;-80
2022/07/05 06:38:04;;;;;;;12.40;9.50;;;;;;;19.06;60.79;102103.03;5051678;28;20076;-80
2022/07/05 06:40:39;;;;;;;17.67;10.23;;;;;;;19.08;61.24;102101.13;5051320;28;20033;-79
2022/07/05 06:43:11;;;;;;;27.58;10.43;;;;;;;19.16;61.76;102114.13;5050931;28;20092;-79
2022/07/05 06:45:55;;;;;;;17.75;8.30;;;;;;;19.28;61.34;102116.25;5050930;28;20042;-79
2022/07/05 06:48:22;;;;;;;19.10;9.40;;;;;;;19.30;61.26;102117.03;5044485;28;20049;-81
2022/07/05 06:50:50;;;;;;;12.15;9.70;;;;;;;19.32;61.56;102117.84;5055118;28;20087;-82
2022/07/05 06:53:17;;;;;;;9.95;6.63;;;;;;;19.30;60.61;102117.03;5054317;28;20119;-81
2022/07/05 06:55:45;;;;;;;14.23;9.07;;;;;;;19.26;60.26;102123.47;5048849;28;20126;-81
2022/07/05 06:58:21;;;;;;;15.00;9.63;;;;;;;19.33;61.34;102119.56;5038602;28;20041;-81
2022/07/05 07:00:48;;;;;;;13.60;10.70;;;;;;;19.47;61.43;102118.94;5053612;28;20389;-81
2022/07/05 07:03:38;;;;;;;17.48;9.70;;;;;;;19.57;61.26;102123.84;5035153;28;20736;-81
2022/07/05 07:06:25;;;;;;;10.60;8.50;;;;;;;19.63;60.16;102115.50;5047286;28;20487;-80
2022/07/05 07:11:37;;;;;;;11.30;6.85;;;;;;;19.81;59.18;102122.63;5052025;28;20509;-80
2022/07/05 07:14:04;;;;;;;14.15;7.15;;;;;;;19.91;58.26;102127.53;5054961;28;20052;-79
2022/07/05 07:16:31;;;;;;;8.38;6.35;;;;;;;20.01;57.27;102120.78;5054719;28;20547;-79
2022/07/05 07:18:59;;;;;;;10.80;6.43;;;;;;;20.08;56.87;102114.22;5053905;28;20122;-77
2022/07/05 07:21:39;;;;;;;14.93;6.30;;;;;;;20.16;56.20;102121.81;5039173;28;20045;-79
2022/07/05 07:24:07;;;;;;;11.45;6.38;;;;;;;20.20;55.16;102126.09;5054738;28;20041;-80
2022/07/05 07:29:22;;;;;;;14.18;6.63;;;;;;;20.29;56.06;102124.78;5040208;28;20061;-79
2022/07/05 07:31:50;;;;;;;20.02;6.93;;;;;;;20.40;55.35;102129.56;5042895;28;20045;-79
2022/07/05 07:34:17;;;;;;;13.90;6.20;;;;;;;20.37;56.17;102127.91;5054909;28;20221;-79
2022/07/05 07:36:44;;;;;;;10.48;5.40;;;;;;;20.39;54.91;102125.16;5053349;28;20045;-79
2022/07/05 07:39:18;;;;;;;9.38;5.50;;;;;;;20.52;53.77;102128.94;5054073;28;20053;-79
2022/07/05 07:41:45;;;;;;;8.18;3.30;;;;;;;20.51;52.34;102123.63;5054160;28;20068;-80
2022/07/05 07:44:13;;;;;;;6.72;4.10;;;;;;;20.37;51.42;102132.38;5044256;28;20034;-79
2022/07/05 07:46:41;;;;;;;7.63;3.78;;;;;;;20.32;52.14;102132.63;5034661;28;20074;-80
2022/07/05 07:49:10;;;;;;;7.40;4.22;;;;;;;20.31;53.37;102131.78;5033326;28;20532;-80
2022/07/05 07:51:38;;;;;;;6.85;4.20;;;;;;;20.40;53.46;102125.06;5037864;28;20054;-80
2022/07/05 07:54:06;;;;;;;6.50;3.83;;;;;;;20.47;52.75;102129.16;5054662;28;20041;-80
2022/07/05 07:56:34;;;;;;;8.93;4.38;;;;;;;20.67;52.61;102126.38;5053211;28;20038;-80
2022/07/05 07:59:01;;;;;;;10.25;4.68;;;;;;;20.90;52.18;102130.56;5054150;28;20503;-79
2022/07/05 08:01:28;;;;;;;9.13;4.35;;;;;;;21.09;52.62;102123.25;5051366;28;20124;-79
2022/07/05 08:03:57;;;;;;;9.82;4.38;;;;;;;21.32;52.69;102130.97;5039602;28;20080;-79
2022/07/05 08:06:24;;;;;;;14.32;5.82;;;;;;;21.52;51.40;102133.41;5048828;28;20042;-78
2022/07/05 08:08:56;;;;;;;9.93;5.68;;;;;;;21.67;51.59;102130.84;5054559;28;20065;-79
2022/07/05 08:11:23;;;;;;;11.50;5.15;;;;;;;21.76;50.99;102129.44;5053224;28;20140;-79
2022/07/05 08:13:50;;;;;;;8.65;5.05;;;;;;;21.96;50.76;102129.16;5052860;28;20072;-80
2022/07/05 08:16:24;;;;;;;10.25;5.22;;;;;;;22.03;49.77;102127.81;5053231;28;20074;-80
2022/07/05 08:21:38;;;;;;;9.02;5.10;;;;;;;22.27;50.95;102131.84;5045374;28;20045;-80
2022/07/05 08:24:11;;;;;;;11.30;4.80;;;;;;;22.39;49.49;102138.31;5052772;28;20101;-80
2022/07/05 08:26:41;;;;;;;9.80;4.80;;;;;;;22.29;49.48;102133.47;5053684;28;20049;-80
2022/07/05 08:29:11;;;;;;;11.88;5.00;;;;;;;22.28;49.58;102131.75;5050853;28;20130;-81
2022/07/05 08:31:49;;;;;;;16.10;5.57;;;;;;;22.33;49.20;102137.69;5053384;28;20121;-81
2022/07/05 08:34:19;;;;;;;13.82;5.57;;;;;;;22.30;49.01;102140.59;5049130;28;20528;-76
2022/07/05 08:36:47;;;;;;;11.88;3.50;;;;;;;22.37;48.96;102141.09;5043997;28;20139;-79
2022/07/05 08:39:15;;;;;;;7.82;3.47;;;;;;;22.44;49.44;102134.41;5053091;28;20045;-77
2022/07/05 08:41:49;;;;;;;10.85;3.90;;;;;;;22.61;48.94;102133.41;5051422;28;20041;-77
2022/07/05 08:44:22;;;;;;;21.95;4.55;;;;;;;22.76;47.83;102134.28;5049215;28;20038;-76
2022/07/05 08:46:52;;;;;;;17.38;5.95;;;;;;;22.80;47.17;102138.47;5040808;28;20050;-77
2022/07/05 08:49:26;;;;;;;8.43;4.97;;;;;;;22.80;47.48;102130.41;5049654;28;20053;-77
2022/07/05 08:51:55;;;;;;;11.60;4.68;;;;;;;22.87;47.69;102138.13;5052876;28;20033;-78
2022/07/05 08:54:24;;;;;;;8.05;4.55;;;;;;;22.82;47.50;102130.34;5051368;28;20129;-76
2022/07/05 08:56:52;;;;;;;13.68;4.75;;;;;;;22.83;48.04;102129.38;5050642;28;20037;-76
2022/07/05 08:59:38;;;;;;;10.13;3.83;;;;;;;22.95;47.30;102131.28;5048868;28;20053;-81
2022/07/05 09:02:06;;;;;;;16.25;5.13;;;;;;;23.00;47.25;102138.22;5041037;28;20037;-78
2022/07/05 09:04:41;;;;;;;9.95;4.78;;;;;;;23.02;46.54;102130.91;5051580;28;20183;-80
2022/07/05 09:07:13;;;;;;;5.18;3.67;;;;;;;22.96;46.31;102126.78;5046904;28;20181;-78
2022/07/05 09:09:43;;;;;;;8.45;3.83;;;;;;;23.06;46.14;102124.38;5050202;28;20061;-80
2022/07/05 09:12:13;;;;;;;7.13;3.53;;;;;;;23.04;45.80;102127.16;5033876;28;20042;-78
2022/07/05 09:14:57;;;;;;;6.07;2.78;;;;;;;23.04;45.53;102127.16;5045754;28;20052;-78
2022/07/05 09:17:26;;;;;;;9.27;3.20;;;;;;;23.17;43.79;102131.78;5050948;28;20049;-78
2022/07/05 09:20:07;;;;;;;4.00;2.90;;;;;;;23.17;43.76;102131.78;5052339;28;20052;-78
2022/07/05 09:22:52;;;;;;;13.43;3.88;;;;;;;23.31;44.80;102130.91;5052568;28;20570;-77
2022/07/05 09:25:28;;;;;;;12.00;3.63;;;;;;;23.34;45.33;102136.13;5066116;28;20038;-77
2022/07/05 09:28:00;;;;;;;6.57;3.70;;;;;;;23.39;45.25;102128.59;5033076;28;20096;-77
2022/07/05 09:30:41;;;;;;;40.00;5.80;;;;;;;23.42;44.98;102134.63;5033260;28;20049;-78
2022/07/05 09:33:15;;;;;;;20.40;3.55;;;;;;;23.37;45.64;102136.78;5032650;28;20104;-77
2022/07/05 09:35:54;;;;;;;17.92;3.33;;;;;;;23.45;45.55;102133.59;5042732;28;20099;-78
2022/07/05 09:38:28;;;;;;;6.07;3.03;;;;;;;23.49;44.83;102129.72;5050179;28;20042;-78
2022/07/05 09:41:02;;;;;;;4.90;2.47;;;;;;;23.50;43.99;102130.59;5052706;28;20104;-79
2022/07/05 09:43:33;;;;;;;7.03;1.90;;;;;;;23.50;42.06;102127.91;5051663;28;20045;-80
2022/07/05 09:46:30;;;;;;;5.97;2.38;;;;;;;23.30;41.92;102124.66;5052330;28;20057;-77
2022/07/05 09:48:58;;;;;;;5.97;2.53;;;;;;;23.16;41.50;102133.59;5052499;28;20119;-78
2022/07/05 09:51:25;;;;;;;5.63;2.92;;;;;;;23.15;42.96;102128.31;5052122;28;20041;-79
2022/07/05 09:54:12;;;;;;;6.50;2.55;;;;;;;22.97;42.60;102131.22;5036614;28;20049;-79
2022/07/05 09:57:04;;;;;;;6.88;2.35;;;;;;;22.75;43.04;102129.84;5033300;28;20046;-80
2022/07/05 09:59:31;;;;;;;4.50;1.95;;;;;;;22.61;44.02;102136.09;5032950;28;20813;-78
2022/07/05 10:01:59;;;;;;;5.45;2.40;;;;;;;22.57;43.73;102134.53;5031684;28;20847;-82
2022/07/05 10:04:26;;;;;;;6.30;2.50;;;;;;;22.62;44.90;102142.31;5038163;28;20096;-80
2022/07/05 10:06:53;;;;;;;6.25;3.00;;;;;;;22.66;44.68;102138.50;5047220;28;20069;-81
2022/07/05 10:09:22;;;;;;;7.75;3.08;;;;;;;22.63;43.80;102136.88;5052083;28;20120;-80
2022/07/05 10:11:50;;;;;;;4.60;2.60;;;;;;;22.59;44.48;102137.13;5052372;28;20497;-80
2022/07/05 10:14:21;;;;;;;6.47;2.50;;;;;;;22.63;44.58;102142.22;5039606;28;20050;-82
2022/07/05 10:17:01;;;;;;;4.85;2.03;;;;;;;22.87;43.64;102138.13;5033044;28;20101;-80
2022/07/05 10:19:38;;;;;;;6.03;2.70;;;;;;;23.13;42.94;102131.09;5037279;28;20049;-80
2022/07/05 10:22:12;;;;;;;8.52;2.47;;;;;;;23.45;41.85;102132.72;5041525;28;20056;-82
2022/07/05 10:24:44;;;;;;;6.03;2.45;;;;;;;23.62;42.18;102126.22;5032821;28;20105;-81
2022/07/05 10:27:37;;;;;;;6.82;2.15;;;;;;;23.69;41.82;102114.97;5034977;28;20787;-82
2022/07/05 10:30:07;;;;;;;4.93;2.30;;;;;;;23.64;40.81;102118.94;5048480;28;20038;-81
2022/07/05 10:32:36;;;;;;;5.07;2.00;;;;;;;23.58;41.35;102118.34;5041355;28;20045;-80
2022/07/05 10:35:03;;;;;;;8.23;2.13;;;;;;;23.60;41.07;102126.34;5050600;28;20041;-80
2022/07/05 10:37:34;;;;;;;26.95;3.17;;;;;;;23.74;41.69;102122.75;5050295;28;20049;-79
2022/07/05 10:40:05;;;;;;;9.43;1.75;;;;;;;24.12;40.28;102123.84;5061492;28;20038;-82
2022/07/05 10:42:48;;;;;;;15.38;2.10;;;;;;;24.29;41.26;102125.38;5051349;28;20504;-81
2022/07/05 10:45:34;;;;;;;18.52;3.10;;;;;;;24.34;38.45;102118.72;5047110;28;20069;-79
2022/07/05 10:48:24;;;;;;;15.95;2.40;;;;;;;24.09;39.67;102122.22;5050659;28;20036;-81
2022/07/05 10:51:13;;;;;;;8.18;2.22;;;;;;;23.93;39.46;102116.97;5036322;28;20041;-80
2022/07/05 10:53:41;;;;;;;5.00;2.22;;;;;;;23.76;40.04;102119.94;5046472;28;20041;-80
2022/07/05 10:56:08;;;;;;;7.38;2.40;;;;;;;23.81;39.82;102121.34;5044931;28;20049;-78
2022/07/05 10:58:44;;;;;;;10.05;2.45;;;;;;;23.64;40.91;102124.31;5039021;28;20132;-78
2022/07/05 11:01:20;;;;;;;12.38;2.70;;;;;;;23.51;42.25;102124.22;5046197;28;20398;-77
2022/07/05 11:04:10;;;;;;;12.05;2.60;;;;;;;23.78;42.13;102121.56;5050904;28;20057;-79
2022/07/05 11:06:43;;;;;;;9.88;2.50;;;;;;;24.22;42.05;102124.94;5040958;28;20060;-77
2022/07/05 11:09:10;;;;;;;14.20;2.72;;;;;;;24.70;42.14;102110.88;5049763;28;20046;-80
2022/07/05 11:11:41;;;;;;;7.07;2.58;;;;;;;25.06;39.35;102113.75;5051527;28;20042;-80
2022/07/05 11:14:34;;;;;;;4.70;2.38;;;;;;;25.32;39.41;102113.72;5050829;28;20044;-79
2022/07/05 11:17:22;;;;;;;5.97;2.67;;;;;;;25.31;38.59;102112.00;5048219;28;20564;-79
2022/07/05 11:20:28;;;;;;;5.60;2.55;;;;;;;25.17;38.67;102115.69;5050874;28;20046;-81
2022/07/05 11:23:14;;;;;;;10.52;3.42;;;;;;;24.93;39.18;102116.50;5049742;28;20892;-78
2022/07/05 11:25:47;;;;;;;5.65;2.28;;;;;;;24.69;40.23;102111.84;5050907;28;21831;-79
2022/07/05 11:28:23;;;;;;;6.33;2.20;;;;;;;24.59;40.99;102119.72;5044972;28;20525;-80
2022/07/05 11:30:59;;;;;;;9.38;2.40;;;;;;;24.52;39.59;102120.25;5030140;28;20719;-79
2022/07/05 11:33:38;;;;;;;6.20;1.73;;;;;;;24.40;39.45;102122.81;5036007;28;20117;-79
2022/07/05 11:36:21;;;;;;;10.65;2.33;;;;;;;24.34;39.95;102116.03;5042612;28;20041;-80
2022/07/05 11:39:17;;;;;;;7.63;2.22;;;;;;;24.77;39.54;102109.50;5052671;28;20045;-78
2022/07/05 11:41:49;;;;;;;16.45;2.40;;;;;;;24.72;40.62;102103.56;5033871;28;20523;-80
2022/07/05 11:44:17;;;;;;;6.55;2.30;;;;;;;24.81;40.30;102112.84;5046282;28;20044;-79
2022/07/05 11:46:45;;;;;;;23.35;3.40;;;;;;;24.62;40.49;102122.16;5053523;28;20471;-78